createdAt,value
2018-09-20T00:00:45.590Z,16.12
2018-09-20T00:03:15.091Z,16.10
2018-09-20T00:05:44.249Z,16.08
2018-09-20T00:08:13.492Z,16.08
2018-09-20T00:10:42.688Z,16.10
2018-09-20T00:13:11.849Z,16.10
2018-09-20T00:15:41.027Z,16.11
2018-09-20T00:18:10.245Z,16.08
2018-09-20T00:20:39.997Z,16.07
2018-09-20T00:23:09.388Z,16.04
2018-09-20T00:25:38.617Z,16.02
2018-09-20T00:28:07.878Z,16.02
2018-09-20T00:30:37.121Z,15.98
2018-09-20T00:33:06.785Z,15.96
2018-09-20T00:35:35.952Z,15.94
2018-09-20T00:38:05.294Z,15.92
2018-09-20T00:40:34.452Z,15.87
2018-09-20T00:43:03.653Z,15.84
2018-09-20T00:45:33.301Z,15.80
2018-09-20T00:48:02.534Z,15.80
2018-09-20T00:50:31.718Z,15.80
2018-09-20T00:53:01.089Z,15.78
2018-09-20T00:55:30.238Z,15.78
2018-09-20T00:57:59.441Z,15.77
2018-09-20T01:00:28.655Z,15.75
2018-09-20T01:02:57.890Z,15.74
2018-09-20T01:05:27.132Z,15.71
2018-09-20T01:07:56.343Z,15.67
2018-09-20T01:10:25.515Z,15.61
2018-09-20T01:12:54.673Z,15.54
2018-09-20T01:15:24.216Z,15.51
2018-09-20T01:17:53.560Z,15.48
2018-09-20T01:20:22.789Z,15.51
2018-09-20T01:22:52.054Z,15.51
2018-09-20T01:25:21.195Z,15.50
2018-09-20T01:27:50.377Z,15.51
2018-09-20T01:30:19.629Z,15.51
2018-09-20T01:32:48.893Z,15.50
2018-09-20T01:35:18.127Z,15.50
2018-09-20T01:37:47.326Z,15.49
2018-09-20T01:40:16.608Z,15.49
2018-09-20T01:42:45.788Z,15.45
2018-09-20T01:45:15.029Z,15.41
2018-09-20T01:47:44.185Z,15.41
2018-09-20T01:50:13.535Z,15.40
2018-09-20T01:52:42.774Z,15.42
2018-09-20T01:55:11.976Z,15.41
2018-09-20T01:57:41.269Z,15.42
2018-09-20T02:00:10.489Z,15.41
2018-09-20T02:02:39.702Z,15.41
2018-09-20T02:05:09.079Z,15.40
2018-09-20T02:07:38.350Z,15.40
2018-09-20T02:10:07.489Z,15.39
2018-09-20T02:12:36.668Z,15.39
2018-09-20T02:15:06.129Z,15.38
2018-09-20T02:17:35.736Z,15.38
2018-09-20T02:20:04.936Z,15.35
2018-09-20T02:22:34.109Z,15.29
2018-09-20T02:25:03.403Z,15.23
2018-09-20T02:27:32.707Z,15.17
2018-09-20T02:30:01.927Z,15.12
2018-09-20T02:32:31.120Z,15.10
2018-09-20T02:35:00.376Z,15.11
2018-09-20T02:37:30.646Z,15.10
2018-09-20T02:40:00.202Z,15.09
2018-09-20T02:42:29.655Z,15.09
2018-09-20T02:44:58.888Z,15.09
2018-09-20T02:47:28.321Z,15.09
2018-09-20T02:49:57.677Z,15.09
2018-09-20T02:52:27.008Z,15.10
2018-09-20T02:54:56.162Z,15.10
2018-09-20T02:57:26.781Z,15.08
2018-09-20T02:59:56.746Z,15.09
2018-09-20T03:02:25.953Z,15.08
2018-09-20T03:04:55.140Z,15.04
2018-09-20T03:07:24.381Z,15.04
2018-09-20T03:09:53.572Z,15.02
2018-09-20T03:12:22.797Z,15.00
2018-09-20T03:14:52.094Z,14.96
2018-09-20T03:17:21.402Z,14.95
2018-09-20T03:19:50.625Z,14.91
2018-09-20T03:22:19.795Z,14.88
2018-09-20T03:24:49.041Z,14.83
2018-09-20T03:27:18.209Z,14.81
2018-09-20T03:29:47.550Z,14.81
2018-09-20T03:32:16.802Z,14.77
2018-09-20T03:34:45.985Z,14.78
2018-09-20T03:37:15.221Z,14.78
2018-09-20T03:39:44.355Z,14.76
2018-09-20T03:42:13.544Z,14.77
2018-09-20T03:44:42.724Z,14.76
2018-09-20T03:47:11.997Z,14.75
2018-09-20T03:49:41.204Z,14.73
2018-09-20T03:52:10.446Z,14.72
2018-09-20T03:54:39.665Z,14.70
2018-09-20T03:57:09.268Z,14.70
2018-09-20T03:59:38.504Z,14.69
2018-09-20T04:02:07.685Z,14.67
2018-09-20T04:04:36.900Z,14.65
2018-09-20T04:07:06.345Z,14.63
2018-09-20T04:09:35.657Z,14.61
2018-09-20T04:12:04.874Z,14.56
2018-09-20T04:14:34.158Z,14.53
2018-09-20T04:17:03.349Z,14.52
2018-09-20T04:19:32.540Z,14.51
2018-09-20T04:22:01.790Z,14.50
2018-09-20T04:24:30.944Z,14.44
2018-09-20T04:27:00.092Z,14.39
2018-09-20T04:29:29.829Z,14.35
2018-09-20T04:31:59.032Z,14.33
2018-09-20T04:34:28.172Z,14.32
2018-09-20T04:36:57.557Z,14.33
2018-09-20T04:39:26.776Z,14.36
2018-09-20T04:41:55.967Z,14.36
2018-09-20T04:44:25.412Z,14.37
2018-09-20T04:46:54.616Z,14.39
2018-09-20T04:49:23.759Z,14.36
2018-09-20T04:51:53.225Z,14.36
2018-09-20T04:54:22.410Z,14.36
2018-09-20T04:56:51.564Z,14.36
2018-09-20T04:59:21.004Z,14.34
2018-09-20T05:01:50.185Z,14.35
2018-09-20T05:04:19.365Z,14.35
2018-09-20T05:06:48.830Z,14.38
2018-09-20T05:09:18.036Z,14.41
2018-09-20T05:11:47.179Z,14.45
2018-09-20T05:14:16.621Z,14.49
2018-09-20T05:16:45.869Z,14.52
2018-09-20T05:19:14.992Z,14.57
2018-09-20T05:21:44.470Z,14.59
2018-09-20T05:24:13.647Z,14.62
2018-09-20T05:26:42.939Z,14.65
2018-09-20T05:29:12.554Z,14.71
2018-09-20T05:31:41.693Z,14.73
2018-09-20T05:34:10.832Z,14.82
2018-09-20T05:36:40.338Z,14.97
2018-09-20T05:39:10.558Z,15.00
2018-09-20T05:41:39.825Z,15.03
2018-09-20T05:44:10.136Z,15.08
2018-09-20T05:46:40.054Z,15.12
2018-09-20T05:49:09.302Z,15.16
2018-09-20T05:51:38.788Z,15.24
2018-09-20T05:54:08.793Z,15.35
2018-09-20T05:56:37.987Z,15.45
2018-09-20T05:59:07.434Z,15.59
2018-09-20T06:01:36.560Z,15.65
2018-09-20T06:04:05.721Z,15.68
2018-09-20T06:06:34.886Z,15.80
2018-09-20T06:09:05.002Z,15.91
2018-09-20T06:11:34.162Z,16.01
2018-09-20T06:14:03.391Z,16.10
2018-09-20T06:16:32.573Z,16.22
2018-09-20T06:19:01.868Z,16.35
2018-09-20T06:21:31.153Z,16.48
2018-09-20T06:24:00.312Z,16.62
2018-09-20T06:26:29.542Z,16.73
2018-09-20T06:28:58.747Z,16.86
2018-09-20T06:31:27.951Z,17.01
2018-09-20T06:33:57.093Z,17.13
2018-09-20T06:36:26.420Z,17.23
2018-09-20T06:38:55.593Z,17.36
2018-09-20T06:41:24.781Z,17.51
2018-09-20T06:43:54.092Z,17.63
2018-09-20T06:46:23.633Z,17.76
2018-09-20T06:48:52.828Z,17.91
2018-09-20T06:51:22.019Z,18.05
2018-09-20T06:53:51.571Z,18.17
2018-09-20T06:56:20.694Z,18.31
2018-09-20T06:58:49.928Z,18.42
2018-09-20T07:01:19.070Z,18.50
2018-09-20T07:03:48.369Z,18.58
2018-09-20T07:06:17.563Z,18.54
2018-09-20T07:08:46.918Z,18.62
2018-09-20T07:11:16.183Z,18.83
2018-09-20T07:13:45.741Z,18.88
2018-09-20T07:16:14.885Z,19.01
2018-09-20T07:18:44.117Z,19.19
2018-09-20T07:21:13.268Z,19.12
2018-09-20T07:23:43.866Z,19.10
2018-09-20T07:26:13.041Z,19.04
2018-09-20T07:28:42.826Z,19.29
2018-09-20T07:31:12.010Z,19.45
2018-09-20T07:33:41.201Z,19.39
2018-09-20T07:36:10.980Z,19.68
2018-09-20T07:38:40.205Z,19.64
2018-09-20T07:41:09.481Z,19.75
2018-09-20T07:43:39.656Z,19.82
2018-09-20T07:46:08.842Z,19.77
2018-09-20T07:48:38.043Z,19.84
2018-09-20T07:51:07.424Z,20.08
2018-09-20T07:53:36.638Z,20.33
2018-09-20T07:56:05.834Z,20.42
2018-09-20T07:58:35.082Z,20.36
2018-09-20T08:01:04.556Z,20.29
2018-09-20T08:03:33.854Z,20.39
2018-09-20T08:06:02.993Z,20.33
2018-09-20T08:08:32.117Z,20.38
2018-09-20T08:11:01.320Z,20.44
2018-09-20T08:13:30.819Z,20.70
2018-09-20T08:16:00.014Z,21.14
2018-09-20T08:18:29.157Z,21.41
2018-09-20T08:20:58.673Z,21.41
2018-09-20T08:23:27.834Z,21.59
2018-09-20T08:25:57.028Z,21.88
2018-09-20T08:28:26.233Z,22.06
2018-09-20T08:30:55.353Z,22.26
2018-09-20T08:33:24.577Z,22.50
2018-09-20T08:35:53.820Z,22.77
2018-09-20T08:38:23.021Z,22.98
2018-09-20T08:40:52.244Z,22.92
2018-09-20T08:43:21.420Z,22.98
2018-09-20T08:45:50.639Z,23.15
2018-09-20T08:48:19.781Z,23.32
2018-09-20T08:50:49.133Z,23.50
2018-09-20T08:53:18.252Z,23.71
2018-09-20T08:55:47.404Z,23.76
2018-09-20T08:58:16.609Z,23.78
2018-09-20T09:00:45.773Z,23.95
2018-09-20T09:03:14.970Z,24.03
2018-09-20T09:05:44.196Z,24.19
2018-09-20T09:08:13.396Z,24.29
2018-09-20T09:10:42.648Z,24.26
2018-09-20T09:13:12.983Z,24.19
2018-09-20T09:15:42.169Z,24.37
2018-09-20T09:18:11.318Z,24.55
2018-09-20T09:20:40.558Z,24.79
2018-09-20T09:23:09.777Z,24.97
2018-09-20T09:25:39.025Z,25.18
2018-09-20T09:28:08.218Z,25.17
2018-09-20T09:30:37.500Z,25.25
2018-09-20T09:33:06.438Z,25.29
2018-09-20T09:35:35.717Z,25.34
2018-09-20T09:38:04.920Z,25.55
2018-09-20T09:40:34.085Z,25.66
2018-09-20T09:43:03.290Z,25.82
2018-09-20T09:45:32.412Z,26.04
2018-09-20T09:48:01.607Z,26.16
2018-09-20T09:50:30.785Z,26.16
2018-09-20T09:53:00.038Z,26.38
2018-09-20T09:55:29.294Z,26.32
2018-09-20T09:57:58.692Z,26.39
2018-09-20T10:00:34.503Z,26.37
2018-09-20T10:03:03.706Z,26.27
2018-09-20T10:05:32.841Z,26.21
2018-09-20T10:08:02.118Z,26.02
2018-09-20T10:10:31.366Z,25.92
2018-09-20T10:13:00.557Z,26.09
2018-09-20T10:15:29.684Z,26.47
2018-09-20T10:17:58.906Z,26.61
2018-09-20T10:20:28.191Z,26.73
2018-09-20T10:22:57.799Z,26.97
2018-09-20T10:25:27.064Z,26.99
2018-09-20T10:27:56.296Z,27.09
2018-09-20T10:30:25.485Z,27.35
2018-09-20T10:32:54.681Z,27.52
2018-09-20T10:35:23.863Z,27.52
2018-09-20T10:37:53.104Z,27.64
2018-09-20T10:40:22.321Z,27.66
2018-09-20T10:42:51.467Z,27.75
2018-09-20T10:45:20.561Z,27.48
2018-09-20T10:47:49.726Z,27.40
2018-09-20T10:50:18.926Z,27.33
2018-09-20T10:52:48.077Z,27.31
2018-09-20T10:55:17.302Z,27.39
2018-09-20T10:57:46.440Z,27.84
2018-09-20T11:00:15.644Z,28.02
2018-09-20T11:02:44.882Z,28.19
2018-09-20T11:05:14.051Z,28.28
2018-09-20T11:07:43.240Z,28.24
2018-09-20T11:10:12.431Z,28.11
2018-09-20T11:12:41.654Z,28.10
2018-09-20T11:15:10.953Z,28.04
2018-09-20T11:17:40.124Z,28.21
2018-09-20T11:20:09.324Z,28.47
2018-09-20T11:22:38.579Z,28.53
2018-09-20T11:25:08.074Z,28.89
2018-09-20T11:27:37.242Z,28.77
2018-09-20T11:30:06.625Z,28.56
2018-09-20T11:32:35.845Z,28.72
2018-09-20T11:35:05.073Z,28.96
2018-09-20T11:37:34.311Z,28.72
2018-09-20T11:40:03.534Z,28.79
2018-09-20T11:42:32.654Z,28.77
2018-09-20T11:45:01.813Z,28.50
2018-09-20T11:47:31.022Z,28.61
2018-09-20T11:50:00.258Z,28.38
2018-09-20T11:52:29.474Z,28.16
2018-09-20T11:54:58.690Z,27.89
2018-09-20T11:57:27.879Z,28.16
2018-09-20T11:59:57.306Z,28.40
2018-09-20T12:02:26.604Z,28.26
2018-09-20T12:04:55.749Z,28.04
2018-09-20T12:07:25.010Z,28.21
2018-09-20T12:09:54.749Z,28.44
2018-09-20T12:12:23.962Z,28.67
2018-09-20T12:14:53.153Z,28.78
2018-09-20T12:17:22.457Z,28.85
2018-09-20T12:19:51.635Z,28.82
2018-09-20T12:22:20.934Z,28.65
2018-09-20T12:24:50.119Z,28.51
2018-09-20T12:27:19.323Z,28.48
2018-09-20T12:29:49.115Z,28.45
2018-09-20T12:32:18.439Z,28.49
2018-09-20T12:34:47.535Z,28.51
2018-09-20T12:37:16.651Z,28.18
2018-09-20T12:39:45.841Z,28.35
2018-09-20T12:42:14.981Z,28.45
2018-09-20T12:44:44.184Z,28.67
2018-09-20T12:47:13.448Z,28.77
2018-09-20T12:49:42.649Z,28.63
2018-09-20T12:52:12.095Z,28.74
2018-09-20T12:54:41.396Z,28.76
2018-09-20T12:57:10.491Z,28.64
2018-09-20T12:59:39.653Z,28.38
2018-09-20T13:02:08.956Z,28.60
2018-09-20T13:04:38.124Z,28.54
2018-09-20T13:07:07.489Z,28.64
2018-09-20T13:09:36.698Z,28.54
2018-09-20T13:12:05.948Z,28.51
2018-09-20T13:14:35.084Z,28.34
2018-09-20T13:17:05.357Z,28.28
2018-09-20T13:19:34.683Z,28.43
2018-09-20T13:22:04.155Z,28.48
2018-09-20T13:24:33.383Z,28.49
2018-09-20T13:27:02.615Z,28.28
2018-09-20T13:29:31.867Z,28.28
2018-09-20T13:32:01.321Z,28.34
2018-09-20T13:34:30.594Z,28.15
2018-09-20T13:36:59.745Z,28.13
2018-09-20T13:39:28.997Z,28.11
2018-09-20T13:41:58.201Z,28.08
2018-09-20T13:44:27.456Z,28.12
2018-09-20T13:46:56.593Z,28.25
2018-09-20T13:49:26.675Z,28.26
2018-09-20T13:51:55.848Z,28.19
2018-09-20T13:54:25.670Z,28.09
2018-09-20T13:56:55.437Z,28.06
2018-09-20T13:59:24.713Z,27.83
2018-09-20T14:01:53.981Z,27.88
2018-09-20T14:04:23.236Z,27.84
2018-09-20T14:06:52.408Z,27.86
2018-09-20T14:09:21.693Z,27.85
2018-09-20T14:11:50.866Z,27.95
2018-09-20T14:14:19.972Z,28.00
2018-09-20T14:16:49.498Z,27.98
2018-09-20T14:19:18.702Z,28.03
2018-09-20T14:21:47.928Z,28.01
2018-09-20T14:24:17.100Z,27.99
2018-09-20T14:26:46.349Z,27.98
2018-09-20T14:29:15.482Z,27.96
2018-09-20T14:31:44.657Z,27.78
2018-09-20T14:34:13.924Z,27.53
2018-09-20T14:36:44.327Z,27.45
2018-09-20T14:39:13.458Z,27.44
2018-09-20T14:41:42.669Z,27.45
2018-09-20T14:44:11.849Z,27.46
2018-09-20T14:46:41.038Z,27.50
2018-09-20T14:49:10.150Z,27.51
2018-09-20T14:51:39.289Z,27.47
2018-09-20T14:54:08.457Z,27.43
2018-09-20T14:56:37.582Z,27.41
2018-09-20T14:59:06.912Z,27.36
2018-09-20T15:01:36.094Z,27.25
2018-09-20T15:04:05.904Z,27.18
2018-09-20T15:06:35.054Z,27.07
2018-09-20T15:09:06.481Z,27.07
2018-09-20T15:11:35.611Z,27.13
2018-09-20T15:14:04.773Z,27.05
2018-09-20T15:16:33.941Z,26.85
2018-09-20T15:19:03.172Z,26.81
2018-09-20T15:21:32.303Z,26.78
2018-09-20T15:24:01.466Z,26.79
2018-09-20T15:26:30.593Z,26.76
2018-09-20T15:28:59.874Z,26.76
2018-09-20T15:31:29.070Z,26.73
2018-09-20T15:33:58.225Z,26.76
2018-09-20T15:36:27.820Z,26.80
2018-09-20T15:38:56.982Z,26.79
2018-09-20T15:41:52.472Z,26.79
2018-09-20T15:44:21.680Z,26.74
2018-09-20T15:46:50.793Z,26.64
2018-09-20T15:49:20.036Z,26.57
2018-09-20T15:51:49.187Z,26.53
2018-09-20T15:54:18.357Z,26.50
2018-09-20T15:56:47.493Z,26.44
2018-09-20T15:59:16.628Z,26.35
2018-09-20T16:01:45.740Z,26.37
2018-09-20T16:04:14.916Z,26.32
2018-09-20T16:06:44.100Z,26.27
2018-09-20T16:09:13.231Z,26.25
2018-09-20T16:11:42.805Z,26.19
2018-09-20T16:14:12.707Z,26.13
2018-09-20T16:16:41.866Z,26.06
2018-09-20T16:19:10.986Z,25.96
2018-09-20T16:21:40.161Z,25.84
2018-09-20T16:24:09.274Z,25.74
2018-09-20T16:26:38.408Z,25.61
2018-09-20T16:29:17.311Z,25.50
2018-09-20T16:32:09.228Z,25.40
2018-09-20T16:34:49.589Z,25.28
2018-09-20T16:37:30.510Z,25.15
2018-09-20T16:40:02.206Z,25.06
2018-09-20T16:42:33.151Z,24.95
2018-09-20T16:45:02.273Z,24.86
2018-09-20T16:47:31.440Z,24.72
2018-09-20T16:50:00.566Z,24.56
2018-09-20T16:52:29.699Z,24.44
2018-09-20T16:54:58.916Z,24.28
2018-09-20T16:57:28.189Z,24.11
2018-09-20T16:59:57.378Z,23.95
2018-09-20T17:02:26.538Z,23.75
2018-09-20T17:04:56.010Z,23.56
2018-09-20T17:07:25.133Z,23.39
2018-09-20T17:09:54.349Z,23.18
2018-09-20T17:12:23.481Z,22.99
2018-09-20T17:14:52.628Z,22.85
2018-09-20T17:17:22.089Z,22.72
2018-09-20T17:19:51.254Z,22.55
2018-09-20T17:22:20.328Z,22.42
2018-09-20T17:24:50.406Z,22.28
2018-09-20T17:27:19.616Z,22.13
2018-09-20T17:29:48.816Z,21.96
2018-09-20T17:32:18.031Z,21.84
2018-09-20T17:34:47.660Z,21.77
2018-09-20T17:37:17.974Z,21.67
2018-09-20T17:39:48.423Z,21.59
2018-09-20T17:42:18.249Z,21.47
2018-09-20T17:44:47.837Z,21.32
2018-09-20T17:47:17.036Z,21.15
2018-09-20T17:49:47.478Z,21.04
2018-09-20T17:52:17.885Z,20.94
2018-09-20T17:54:48.095Z,20.85
2018-09-20T17:57:18.038Z,20.78
2018-09-20T17:59:47.194Z,20.69
2018-09-20T18:02:16.449Z,20.65
2018-09-20T18:04:45.787Z,20.63
2018-09-20T18:07:15.195Z,20.66
2018-09-20T18:09:44.321Z,20.69
2018-09-20T18:12:13.556Z,20.69
2018-09-20T18:14:42.682Z,20.67
2018-09-20T18:17:11.865Z,20.66
2018-09-20T18:19:41.020Z,20.63
2018-09-20T18:22:11.493Z,20.60
2018-09-20T18:24:40.712Z,20.50
2018-09-20T18:27:09.906Z,20.49
2018-09-20T18:29:39.027Z,20.37
2018-09-20T18:32:08.466Z,20.25
2018-09-20T18:34:37.577Z,20.20
2018-09-20T18:37:06.951Z,20.16
2018-09-20T18:39:36.122Z,20.00
2018-09-20T18:42:05.288Z,19.79
2018-09-20T18:44:34.507Z,19.64
2018-09-20T18:47:03.697Z,19.61
2018-09-20T18:49:32.868Z,19.59
2018-09-20T18:52:02.024Z,19.43
2018-09-20T18:54:31.217Z,19.33
2018-09-20T18:57:00.344Z,19.24
2018-09-20T18:59:29.529Z,19.20
2018-09-20T19:01:59.055Z,19.15
2018-09-20T19:04:28.206Z,19.09
2018-09-20T19:06:57.344Z,18.98
2018-09-20T19:09:26.492Z,18.91
2018-09-20T19:11:55.607Z,18.91
2018-09-20T19:14:24.729Z,18.91
2018-09-20T19:16:53.912Z,18.90
2018-09-20T19:19:23.056Z,18.84
2018-09-20T19:21:52.226Z,18.83
2018-09-20T19:24:21.518Z,18.72
2018-09-20T19:26:50.911Z,18.50
2018-09-20T19:29:20.065Z,18.42
2018-09-20T19:31:49.345Z,18.42
2018-09-20T19:34:18.476Z,18.42
2018-09-20T19:36:47.782Z,18.43
2018-09-20T19:39:16.845Z,18.42
2018-09-20T19:41:46.428Z,18.41
2018-09-20T19:44:15.628Z,18.33
2018-09-20T19:46:44.845Z,18.24
2018-09-20T19:49:13.979Z,18.09
2018-09-20T19:51:43.169Z,18.00
2018-09-20T19:54:12.303Z,17.94
2018-09-20T19:56:41.430Z,17.87
2018-09-20T19:59:10.568Z,17.79
2018-09-20T20:01:39.744Z,17.70
2018-09-20T20:04:08.868Z,17.66
2018-09-20T20:06:38.033Z,17.62
2018-09-20T20:09:10.979Z,17.59
2018-09-20T20:11:40.930Z,17.58
2018-09-20T20:14:10.158Z,17.59
2018-09-20T20:16:39.974Z,17.61
2018-09-20T20:19:09.701Z,17.60
2018-09-20T20:21:38.901Z,17.59
2018-09-20T20:24:08.168Z,17.56
2018-09-20T20:26:37.348Z,17.46
2018-09-20T20:29:06.597Z,17.35
2018-09-20T20:31:35.827Z,17.27
2018-09-20T20:34:04.995Z,17.19
2018-09-20T20:36:34.150Z,17.21
2018-09-20T20:39:03.406Z,17.21
2018-09-20T20:41:32.600Z,17.16
2018-09-20T20:44:01.993Z,17.07
2018-09-20T20:46:31.408Z,17.07
2018-09-20T20:49:00.679Z,17.10
2018-09-20T20:51:29.875Z,17.13
2018-09-20T20:53:59.112Z,17.14
2018-09-20T20:56:28.270Z,17.13
2018-09-20T20:58:57.475Z,17.12
2018-09-20T21:01:26.653Z,17.10
2018-09-20T21:03:56.628Z,17.07
2018-09-20T21:06:25.810Z,17.01
2018-09-20T21:08:55.065Z,16.90
2018-09-20T21:11:24.129Z,16.84
2018-09-20T21:13:53.704Z,16.77
2018-09-20T21:16:22.864Z,16.78
2018-09-20T21:18:52.267Z,16.82
2018-09-20T21:21:21.713Z,16.86
2018-09-20T21:23:50.956Z,16.86
2018-09-20T21:26:20.173Z,16.87
2018-09-20T21:28:49.305Z,16.85
2018-09-20T21:31:18.534Z,16.82
2018-09-20T21:33:47.996Z,16.72
2018-09-20T21:36:17.164Z,16.66
2018-09-20T21:38:46.332Z,16.61
2018-09-20T21:41:16.265Z,16.47
2018-09-20T21:43:45.466Z,16.34
2018-09-20T21:46:14.609Z,16.34
2018-09-20T21:48:43.880Z,16.38
2018-09-20T21:51:13.600Z,16.39
2018-09-20T21:53:42.893Z,16.39
2018-09-20T21:56:12.334Z,16.33
2018-09-20T21:58:41.579Z,16.28
2018-09-20T22:01:14.760Z,16.17
2018-09-20T22:03:43.933Z,16.12
2018-09-20T22:06:13.070Z,16.07
2018-09-20T22:08:42.398Z,16.05
2018-09-20T22:11:11.540Z,16.06
2018-09-20T22:13:40.731Z,16.07
2018-09-20T22:16:10.252Z,16.05
2018-09-20T22:18:39.412Z,15.98
2018-09-20T22:21:08.628Z,15.87
2018-09-20T22:23:37.830Z,15.79
2018-09-20T22:26:07.043Z,15.76
2018-09-20T22:28:36.193Z,15.77
2018-09-20T22:31:06.240Z,15.75
2018-09-20T22:33:35.426Z,15.72
2018-09-20T22:36:04.729Z,15.71
2018-09-20T22:38:33.948Z,15.70
2018-09-20T22:41:03.289Z,15.66
2018-09-20T22:43:32.810Z,15.59
2018-09-20T22:46:02.068Z,15.56
2018-09-20T22:48:35.524Z,15.55
2018-09-20T22:51:04.929Z,15.55
2018-09-20T22:53:34.154Z,15.58
2018-09-20T22:56:03.322Z,15.57
2018-09-20T22:58:32.512Z,15.52
2018-09-20T23:01:01.990Z,15.47
2018-09-20T23:03:31.415Z,15.20
2018-09-20T23:06:00.618Z,15.47
2018-09-20T23:08:30.266Z,15.44
2018-09-20T23:10:59.417Z,15.41
2018-09-20T23:13:29.027Z,15.39
2018-09-20T23:15:58.164Z,15.37
2018-09-20T23:18:27.879Z,15.35
2018-09-20T23:20:57.820Z,15.29
2018-09-20T23:23:26.980Z,15.21
2018-09-20T23:25:56.152Z,15.12
2018-09-20T23:28:25.772Z,15.07
2018-09-20T23:30:55.032Z,15.08
2018-09-20T23:33:24.239Z,15.07
2018-09-20T23:35:53.589Z,15.05
2018-09-20T23:38:23.240Z,15.04
2018-09-20T23:40:52.485Z,15.05
2018-09-20T23:43:21.647Z,15.05
2018-09-20T23:45:50.821Z,15.05
2018-09-20T23:48:20.025Z,15.08
2018-09-20T23:50:49.191Z,15.06
2018-09-20T23:53:18.395Z,15.04
2018-09-20T23:55:47.881Z,15.03
2018-09-20T23:58:17.057Z,14.96
